createdAt,value
2022-09-20T00:01:07.490Z,18.08
2022-09-20T00:03:30.766Z,18.06
2022-09-20T00:05:53.867Z,18.00
2022-09-20T00:08:17.288Z,18.11
2022-09-20T00:10:40.463Z,18.22
2022-09-20T00:13:03.666Z,18.10
2022-09-20T00:15:28.195Z,17.85
2022-09-20T00:17:51.192Z,18.06
2022-09-20T00:20:14.338Z,18.10
2022-09-20T00:22:37.542Z,18.08
2022-09-20T00:25:00.628Z,18.09
2022-09-20T00:27:23.838Z,18.00
2022-09-20T00:29:47.145Z,18.05
2022-09-20T00:32:11.742Z,18.07
2022-09-20T00:34:52.123Z,17.88
2022-09-20T00:37:15.276Z,17.81
2022-09-20T00:39:38.449Z,17.99
2022-09-20T00:42:01.613Z,17.80
2022-09-20T00:44:44.548Z,17.80
2022-09-20T00:47:07.845Z,17.82
2022-09-20T00:49:32.377Z,17.75
2022-09-20T00:51:56.494Z,17.75
2022-09-20T00:54:20.733Z,17.94
2022-09-20T00:56:44.344Z,17.86
2022-09-20T00:59:09.741Z,17.97
2022-09-20T01:01:33.014Z,17.96
2022-09-20T01:03:56.268Z,18.00
2022-09-20T01:06:20.794Z,17.80
2022-09-20T01:08:44.819Z,17.71
2022-09-20T01:11:07.990Z,17.78
2022-09-20T01:13:31.234Z,17.76
2022-09-20T01:15:54.395Z,17.65
2022-09-20T01:18:17.617Z,17.72
2022-09-20T01:20:42.062Z,17.67
2022-09-20T01:23:22.922Z,17.61
2022-09-20T01:26:00.113Z,17.72
2022-09-20T01:28:24.758Z,17.75
2022-09-20T01:30:49.819Z,17.52
2022-09-20T01:33:15.562Z,17.58
2022-09-20T01:35:38.714Z,17.52
2022-09-20T01:38:10.985Z,17.46
2022-09-20T01:40:37.555Z,17.52
2022-09-20T01:43:04.156Z,17.56
2022-09-20T01:45:29.862Z,17.52
2022-09-20T01:47:58.610Z,17.40
2022-09-20T01:50:26.717Z,17.50
2022-09-20T01:53:35.541Z,17.46
2022-09-20T01:56:26.758Z,17.43
2022-09-20T01:59:24.159Z,17.44
2022-09-20T02:02:18.638Z,17.47
2022-09-20T02:05:18.940Z,17.68
2022-09-20T02:08:09.368Z,17.63
2022-09-20T02:10:40.324Z,17.39
2022-09-20T02:13:05.128Z,17.29
2022-09-20T02:15:42.829Z,17.33
2022-09-20T02:18:12.669Z,17.26
2022-09-20T02:20:40.485Z,17.34
2022-09-20T02:23:23.163Z,17.28
2022-09-20T02:26:04.192Z,17.33
2022-09-20T02:28:32.881Z,17.25
2022-09-20T02:30:57.857Z,17.46
2022-09-20T02:33:35.730Z,17.49
2022-09-20T02:36:09.767Z,17.63
2022-09-20T02:38:47.527Z,17.70
2022-09-20T02:41:30.958Z,17.64
2022-09-20T02:43:57.561Z,17.50
2022-09-20T02:46:23.781Z,17.60
2022-09-20T02:48:50.177Z,17.74
2022-09-20T02:51:17.938Z,17.57
2022-09-20T02:53:44.489Z,17.61
2022-09-20T02:56:12.026Z,17.48
2022-09-20T02:58:41.305Z,17.35
2022-09-20T03:01:07.066Z,17.58
2022-09-20T03:03:35.947Z,17.51
2022-09-20T03:06:09.449Z,17.48
2022-09-20T03:08:36.134Z,17.55
2022-09-20T03:11:04.935Z,17.38
2022-09-20T03:13:33.415Z,17.35
2022-09-20T03:16:02.379Z,17.19
2022-09-20T03:18:32.752Z,17.03
2022-09-20T03:21:01.712Z,17.33
2022-09-20T03:23:37.071Z,17.37
2022-09-20T03:26:04.147Z,17.31
2022-09-20T03:28:43.634Z,17.11
2022-09-20T03:31:24.055Z,17.15
2022-09-20T03:33:51.128Z,17.18
2022-09-20T03:36:24.965Z,17.14
2022-09-20T03:38:56.929Z,17.10
2022-09-20T03:41:34.817Z,16.96
2022-09-20T03:44:12.038Z,17.14
2022-09-20T03:46:37.127Z,17.07
2022-09-20T03:49:31.065Z,17.01
2022-09-20T03:51:59.673Z,16.98
2022-09-20T03:54:43.962Z,16.79
2022-09-20T03:57:36.394Z,16.91
2022-09-20T04:00:10.001Z,16.88
2022-09-20T04:02:40.068Z,16.82
2022-09-20T04:05:04.811Z,16.93
2022-09-20T04:07:31.582Z,17.09
2022-09-20T04:10:03.391Z,16.85
2022-09-20T04:12:30.819Z,16.66
2022-09-20T04:14:55.837Z,16.68
2022-09-20T04:17:26.540Z,16.78
2022-09-20T04:19:52.168Z,16.68
2022-09-20T04:22:16.353Z,16.68
2022-09-20T04:24:43.142Z,16.76
2022-09-20T04:27:09.709Z,16.64
2022-09-20T04:29:36.100Z,16.61
2022-09-20T04:32:03.850Z,16.56
2022-09-20T04:34:49.543Z,16.48
2022-09-20T04:37:19.556Z,16.68
2022-09-20T04:39:44.441Z,16.66
2022-09-20T04:42:45.063Z,16.42
2022-09-20T04:45:35.335Z,16.36
2022-09-20T04:48:39.231Z,16.25
2022-09-20T04:51:39.925Z,16.43
2022-09-20T04:54:39.514Z,16.13
2022-09-20T04:57:18.914Z,16.21
2022-09-20T04:59:46.825Z,16.28
2022-09-20T05:02:32.290Z,16.34
2022-09-20T05:05:29.753Z,16.41
2022-09-20T05:08:37.174Z,16.29
2022-09-20T05:11:18.518Z,16.18
2022-09-20T05:13:54.914Z,16.17
2022-09-20T05:16:21.053Z,16.19
2022-09-20T05:19:14.804Z,16.15
2022-09-20T05:21:51.629Z,16.05
2022-09-20T05:24:22.060Z,16.10
2022-09-20T05:26:52.008Z,16.25
2022-09-20T05:29:19.665Z,16.27
2022-09-20T05:31:44.047Z,16.18
2022-09-20T05:34:12.935Z,16.19
2022-09-20T05:36:41.634Z,16.19
2022-09-20T05:39:13.703Z,16.21
2022-09-20T05:41:39.590Z,16.22
2022-09-20T05:44:06.242Z,16.42
2022-09-20T05:46:37.049Z,16.33
2022-09-20T05:49:05.417Z,16.44
2022-09-20T05:51:42.340Z,16.39
2022-09-20T05:54:25.230Z,16.42
2022-09-20T05:56:50.808Z,16.51
2022-09-20T05:59:33.634Z,16.66
2022-09-20T06:02:11.691Z,16.61
2022-09-20T06:04:37.251Z,16.64
2022-09-20T06:07:04.136Z,16.55
2022-09-20T06:09:32.340Z,16.68
2022-09-20T06:12:16.310Z,16.61
2022-09-20T06:14:43.281Z,16.70
2022-09-20T06:17:12.051Z,16.83
2022-09-20T06:19:37.922Z,16.85
2022-09-20T06:22:03.931Z,16.88
2022-09-20T06:24:35.466Z,16.61
2022-09-20T06:26:58.721Z,16.48
2022-09-20T06:29:25.891Z,16.70
2022-09-20T06:31:49.179Z,16.77
2022-09-20T06:34:14.666Z,16.64
2022-09-20T06:36:56.548Z,16.56
2022-09-20T06:39:40.808Z,16.62
2022-09-20T06:42:04.249Z,16.57
2022-09-20T06:44:27.417Z,16.61
2022-09-20T06:46:53.638Z,16.72
2022-09-20T06:49:18.169Z,16.75
2022-09-20T06:51:41.467Z,16.89
2022-09-20T06:54:04.811Z,16.94
2022-09-20T06:56:29.710Z,16.80
2022-09-20T06:58:53.293Z,16.99
2022-09-20T07:01:26.577Z,16.99
2022-09-20T07:03:52.751Z,17.01
2022-09-20T07:06:19.872Z,17.01
2022-09-20T07:08:43.449Z,16.99
2022-09-20T07:11:09.383Z,17.00
2022-09-20T07:13:32.687Z,17.03
2022-09-20T07:16:01.532Z,17.02
2022-09-20T07:18:24.697Z,17.13
2022-09-20T07:20:47.881Z,17.12
2022-09-20T07:23:12.400Z,17.08
2022-09-20T07:25:35.631Z,17.14
2022-09-20T07:27:58.817Z,17.32
2022-09-20T07:30:22.109Z,17.35
2022-09-20T07:32:45.317Z,17.32
2022-09-20T07:35:09.553Z,17.45
2022-09-20T07:37:36.864Z,17.51
2022-09-20T07:40:02.207Z,17.52
2022-09-20T07:42:25.540Z,17.53
2022-09-20T07:44:48.998Z,17.52
2022-09-20T07:47:14.286Z,17.48
2022-09-20T07:49:37.598Z,17.52
2022-09-20T07:52:00.813Z,17.65
2022-09-20T07:54:24.187Z,17.77
2022-09-20T07:56:48.962Z,17.82
2022-09-20T07:59:12.322Z,17.79
2022-09-20T08:01:35.607Z,17.81
2022-09-20T08:03:58.903Z,17.78
2022-09-20T08:06:22.353Z,17.80
2022-09-20T08:08:45.681Z,18.01
2022-09-20T08:11:09.983Z,18.04
2022-09-20T08:16:20.487Z,18.14
2022-09-20T08:18:47.460Z,18.24
2022-09-20T08:21:11.676Z,18.31
2022-09-20T08:23:36.157Z,18.13
2022-09-20T08:25:59.210Z,18.02
2022-09-20T08:28:22.392Z,18.20
2022-09-20T08:30:47.040Z,18.29
2022-09-20T08:33:11.539Z,18.35
2022-09-20T08:35:38.168Z,18.26
2022-09-20T08:40:45.194Z,18.42
2022-09-20T08:43:09.067Z,18.50
2022-09-20T08:45:35.500Z,18.44
2022-09-20T08:48:01.641Z,18.51
2022-09-20T08:50:24.851Z,18.44
2022-09-20T08:52:49.416Z,18.48
2022-09-20T08:55:16.887Z,18.55
2022-09-20T08:57:40.292Z,18.50
2022-09-20T09:00:04.706Z,18.59
2022-09-20T09:02:31.055Z,18.68
2022-09-20T09:04:56.088Z,18.50
2022-09-20T09:07:21.800Z,18.55
2022-09-20T09:09:46.625Z,18.48
2022-09-20T09:12:16.409Z,18.48
2022-09-20T09:14:55.121Z,18.68
2022-09-20T09:17:19.432Z,18.71
2022-09-20T09:19:47.602Z,18.67
2022-09-20T09:22:12.205Z,18.57
2022-09-20T09:24:35.515Z,18.70
2022-09-20T09:27:07.625Z,18.77
2022-09-20T09:29:34.773Z,18.75
2022-09-20T09:31:58.261Z,18.71
2022-09-20T09:34:26.417Z,18.74
2022-09-20T09:36:49.713Z,18.80
2022-09-20T09:39:22.168Z,18.86
2022-09-20T09:41:46.458Z,18.72
2022-09-20T09:44:22.901Z,18.74
2022-09-20T09:46:46.115Z,18.79
2022-09-20T09:49:12.862Z,18.80
2022-09-20T09:51:36.383Z,18.76
2022-09-20T09:53:59.681Z,18.89
2022-09-20T09:56:35.286Z,18.87
2022-09-20T09:59:24.429Z,18.98
2022-09-20T10:01:53.394Z,18.95
2022-09-20T10:04:18.734Z,18.94
2022-09-20T10:06:45.392Z,18.99
2022-09-20T10:09:28.345Z,19.00
2022-09-20T10:11:59.900Z,18.95
2022-09-20T10:14:30.456Z,18.96
2022-09-20T10:17:02.308Z,19.08
2022-09-20T10:19:32.135Z,19.10
2022-09-20T10:21:57.369Z,19.00
2022-09-20T10:24:31.136Z,18.97
2022-09-20T10:27:19.330Z,19.01
2022-09-20T10:29:49.811Z,19.06
2022-09-20T10:32:21.385Z,19.10
2022-09-20T10:34:54.011Z,19.02
2022-09-20T10:37:19.197Z,18.92
2022-09-20T10:39:42.408Z,18.95
2022-09-20T10:42:27.139Z,19.08
2022-09-20T10:45:04.417Z,19.20
2022-09-20T10:47:29.410Z,19.16
2022-09-20T10:49:57.368Z,19.25
2022-09-20T10:52:31.693Z,19.32
2022-09-20T10:55:09.383Z,19.37
2022-09-20T10:57:48.739Z,19.26
2022-09-20T11:00:21.256Z,19.31
2022-09-20T11:02:49.695Z,19.30
2022-09-20T11:05:31.541Z,19.29
2022-09-20T11:08:00.284Z,19.30
2022-09-20T11:10:25.518Z,19.39
2022-09-20T11:12:51.388Z,19.46
2022-09-20T11:15:18.537Z,19.48
2022-09-20T11:17:43.013Z,19.41
2022-09-20T11:20:08.724Z,19.36
2022-09-20T11:22:35.393Z,19.33
2022-09-20T11:25:03.019Z,19.41
2022-09-20T11:27:29.706Z,19.47
2022-09-20T11:29:54.728Z,19.52
2022-09-20T11:32:22.171Z,19.48
2022-09-20T11:34:53.638Z,19.58
2022-09-20T11:37:16.874Z,19.65
2022-09-20T11:39:41.043Z,19.59
2022-09-20T11:42:05.220Z,19.48
2022-09-20T11:44:28.559Z,19.40
2022-09-20T11:46:53.507Z,19.37
2022-09-20T11:49:19.714Z,19.36
2022-09-20T11:52:11.251Z,19.37
2022-09-20T11:55:16.370Z,19.46
2022-09-20T11:57:39.658Z,19.51
2022-09-20T12:00:04.233Z,19.56
2022-09-20T12:02:36.573Z,19.54
2022-09-20T12:05:02.108Z,19.50
2022-09-20T12:07:26.106Z,19.48
2022-09-20T12:09:54.178Z,19.54
2022-09-20T12:12:20.230Z,19.53
2022-09-20T12:14:43.427Z,19.61
2022-09-20T12:17:07.267Z,19.65
2022-09-20T12:19:40.153Z,19.60
2022-09-20T12:22:29.556Z,19.60
2022-09-20T12:25:14.433Z,19.58
2022-09-20T12:27:58.231Z,19.45
2022-09-20T12:30:22.345Z,19.45
2022-09-20T12:32:56.474Z,19.55
2022-09-20T12:35:53.314Z,19.68
2022-09-20T12:38:40.230Z,19.72
2022-09-20T12:41:09.112Z,19.74
2022-09-20T12:43:32.634Z,19.73
2022-09-20T12:45:59.912Z,19.76
2022-09-20T12:48:26.201Z,19.73
2022-09-20T12:51:19.937Z,19.78
2022-09-20T12:53:45.221Z,19.83
2022-09-20T12:56:08.591Z,19.87
2022-09-20T12:58:45.198Z,19.90
2022-09-20T13:01:29.890Z,19.75
2022-09-20T13:03:53.242Z,19.69
2022-09-20T13:06:24.233Z,19.66
2022-09-20T13:08:49.317Z,19.63
2022-09-20T13:11:17.449Z,19.69
2022-09-20T13:13:42.239Z,19.69
2022-09-20T13:16:06.408Z,19.73
2022-09-20T13:18:29.767Z,19.72
2022-09-20T13:20:53.905Z,19.69
2022-09-20T13:23:20.431Z,19.64
2022-09-20T13:25:45.091Z,19.68
2022-09-20T13:28:08.827Z,19.63
2022-09-20T13:30:32.726Z,19.59
2022-09-20T13:32:56.902Z,19.59
2022-09-20T13:35:21.551Z,19.55
2022-09-20T13:37:49.374Z,19.58
2022-09-20T13:40:18.134Z,19.55
2022-09-20T13:42:44.061Z,19.58
2022-09-20T13:45:08.156Z,19.54
2022-09-20T13:47:31.934Z,19.54
2022-09-20T13:50:00.312Z,19.57
2022-09-20T13:52:27.176Z,19.55
2022-09-20T13:54:50.383Z,19.49
2022-09-20T13:57:16.614Z,19.48
2022-09-20T13:59:44.991Z,19.44
2022-09-20T14:02:14.254Z,19.58
2022-09-20T14:04:37.430Z,19.57
2022-09-20T14:07:00.905Z,19.54
2022-09-20T14:09:28.524Z,19.52
2022-09-20T14:11:51.725Z,19.49
2022-09-20T14:14:17.535Z,19.57
2022-09-20T14:16:46.834Z,19.53
2022-09-20T14:19:09.979Z,19.61
2022-09-20T14:21:33.891Z,19.57
2022-09-20T14:23:58.354Z,19.60
2022-09-20T14:26:26.344Z,19.59
2022-09-20T14:28:49.625Z,19.54
2022-09-20T14:31:14.507Z,19.54
2022-09-20T14:33:41.202Z,19.64
2022-09-20T14:36:04.511Z,19.74
2022-09-20T14:38:27.640Z,19.72
2022-09-20T14:40:51.816Z,19.78
2022-09-20T14:43:24.280Z,19.82
2022-09-20T14:45:53.416Z,19.83
2022-09-20T14:48:35.142Z,19.78
2022-09-20T14:51:22.581Z,19.80
2022-09-20T14:53:45.940Z,19.78
2022-09-20T14:56:11.444Z,19.75
2022-09-20T14:58:34.958Z,19.77
2022-09-20T15:00:59.532Z,19.68
2022-09-20T15:03:26.672Z,19.67
2022-09-20T15:05:49.978Z,19.69
2022-09-20T15:08:15.546Z,19.71
2022-09-20T15:10:38.678Z,19.68
2022-09-20T15:13:01.892Z,19.69
2022-09-20T15:15:25.032Z,19.72
2022-09-20T15:17:48.876Z,19.70
2022-09-20T15:20:19.591Z,19.65
2022-09-20T15:22:46.533Z,19.65
2022-09-20T15:25:14.280Z,19.61
2022-09-20T15:27:37.656Z,19.64
2022-09-20T15:30:02.837Z,19.71
2022-09-20T15:32:26.115Z,19.72
2022-09-20T15:34:49.251Z,19.76
2022-09-20T15:37:12.481Z,19.81
2022-09-20T15:39:35.655Z,19.83
2022-09-20T15:42:00.210Z,19.87
2022-09-20T15:44:23.155Z,19.90
2022-09-20T15:46:46.653Z,19.90
2022-09-20T15:49:11.333Z,19.89
2022-09-20T15:51:35.396Z,19.82
2022-09-20T15:54:00.150Z,19.71
2022-09-20T15:56:23.916Z,19.73
2022-09-20T15:58:50.286Z,19.76
2022-09-20T16:01:15.608Z,19.81
2022-09-20T16:03:38.923Z,19.84
2022-09-20T16:06:04.509Z,19.86
2022-09-20T16:08:28.661Z,19.83
2022-09-20T16:10:57.482Z,19.75
2022-09-20T16:13:20.663Z,19.76
2022-09-20T16:15:45.308Z,19.77
2022-09-20T16:18:41.251Z,19.77
2022-09-20T16:21:08.078Z,19.75
2022-09-20T16:23:31.249Z,19.69
2022-09-20T16:25:55.037Z,19.58
2022-09-20T16:28:18.202Z,19.58
2022-09-20T16:30:41.492Z,19.55
2022-09-20T16:33:06.306Z,19.51
2022-09-20T16:35:29.538Z,19.49
2022-09-20T16:37:52.676Z,19.50
2022-09-20T16:40:16.138Z,19.49
2022-09-20T16:42:39.284Z,19.47
2022-09-20T16:45:02.462Z,19.43
2022-09-20T16:47:26.293Z,19.46
2022-09-20T16:49:51.645Z,19.45
2022-09-20T16:52:14.783Z,19.47
2022-09-20T16:54:38.290Z,19.49
2022-09-20T16:57:01.453Z,19.49
2022-09-20T16:59:24.905Z,19.41
2022-09-20T17:01:48.378Z,19.36
2022-09-20T17:04:13.531Z,19.36
2022-09-20T17:06:38.700Z,19.30
2022-09-20T17:09:01.946Z,19.38
2022-09-20T17:11:26.282Z,19.43
2022-09-20T17:13:51.435Z,19.41
2022-09-20T17:16:15.459Z,19.45
2022-09-20T17:18:41.914Z,19.36
2022-09-20T17:21:06.245Z,19.37
2022-09-20T17:23:32.188Z,19.36
2022-09-20T17:26:04.452Z,19.30
2022-09-20T17:28:27.618Z,19.26
2022-09-20T17:30:50.880Z,19.23
2022-09-20T17:33:14.870Z,19.28
2022-09-20T17:35:38.003Z,19.30
2022-09-20T17:38:01.204Z,19.27
2022-09-20T17:40:25.790Z,19.24
2022-09-20T17:42:49.015Z,19.27
2022-09-20T17:45:12.454Z,19.22
2022-09-20T17:47:35.676Z,19.22
2022-09-20T17:49:58.835Z,19.15
2022-09-20T17:52:22.002Z,19.15
2022-09-20T17:54:45.261Z,19.13
2022-09-20T17:57:09.767Z,19.15
2022-09-20T17:59:34.423Z,19.34
2022-09-20T18:01:57.613Z,19.49
2022-09-20T18:04:24.492Z,19.56
2022-09-20T18:06:48.491Z,19.66
2022-09-20T18:09:12.887Z,19.74
2022-09-20T18:11:36.447Z,19.78
2022-09-20T18:14:01.355Z,19.83
2022-09-20T18:16:24.905Z,19.88
2022-09-20T18:18:48.106Z,19.62
2022-09-20T18:21:13.148Z,19.74
2022-09-20T18:23:36.281Z,19.87
2022-09-20T18:26:17.086Z,19.91
2022-09-20T18:28:40.279Z,19.94
2022-09-20T18:31:05.092Z,19.60
2022-09-20T18:33:28.302Z,19.27
2022-09-20T18:35:51.476Z,19.27
2022-09-20T18:38:17.307Z,19.29
2022-09-20T18:40:42.013Z,19.28
2022-09-20T18:43:05.463Z,19.25
2022-09-20T18:45:28.961Z,19.15
2022-09-20T18:47:59.655Z,19.09
2022-09-20T18:50:24.506Z,19.11
2022-09-20T18:52:47.949Z,19.14
2022-09-20T18:55:12.006Z,19.06
2022-09-20T18:57:35.670Z,19.13
2022-09-20T19:00:03.604Z,19.08
2022-09-20T19:02:55.402Z,19.06
2022-09-20T19:05:28.323Z,18.99
2022-09-20T19:08:00.234Z,18.91
2022-09-20T19:10:26.285Z,18.99
2022-09-20T19:12:51.383Z,19.07
2022-09-20T19:15:35.522Z,18.88
2022-09-20T19:18:07.391Z,18.93
2022-09-20T19:20:33.183Z,18.94
2022-09-20T19:23:01.750Z,19.00
2022-09-20T19:25:26.340Z,19.08
2022-09-20T19:27:49.961Z,19.16
2022-09-20T19:30:15.030Z,19.14
2022-09-20T19:32:38.898Z,19.38
2022-09-20T19:35:04.310Z,19.36
2022-09-20T19:37:31.669Z,19.28
2022-09-20T19:40:02.198Z,19.08
2022-09-20T19:42:28.703Z,19.20
2022-09-20T19:44:56.341Z,19.10
2022-09-20T19:47:25.474Z,19.29
2022-09-20T19:49:52.694Z,19.07
2022-09-20T19:52:17.493Z,19.20
2022-09-20T19:54:45.771Z,19.28
2022-09-20T19:57:12.717Z,19.06
2022-09-20T19:59:36.672Z,19.06
2022-09-20T20:02:00.575Z,18.87
2022-09-20T20:04:24.348Z,18.83
2022-09-20T20:06:52.723Z,18.81
2022-09-20T20:09:20.226Z,18.78
2022-09-20T20:11:45.957Z,18.82
2022-09-20T20:14:15.348Z,18.94
2022-09-20T20:16:44.305Z,19.00
2022-09-20T20:19:14.023Z,18.96
2022-09-20T20:21:41.331Z,19.09
2022-09-20T20:24:07.546Z,19.10
2022-09-20T20:26:32.119Z,18.79
2022-09-20T20:28:55.302Z,19.01
2022-09-20T20:31:18.486Z,18.95
2022-09-20T20:33:41.745Z,18.88
2022-09-20T20:36:06.162Z,18.92
2022-09-20T20:38:30.142Z,18.93
2022-09-20T20:41:00.933Z,18.99
2022-09-20T20:43:26.107Z,19.06
2022-09-20T20:45:51.130Z,19.04
2022-09-20T20:48:14.407Z,19.05
2022-09-20T20:50:37.738Z,19.01
2022-09-20T20:53:01.022Z,18.81
2022-09-20T20:55:24.692Z,18.50
2022-09-20T20:57:54.321Z,18.58
2022-09-20T21:00:18.990Z,18.77
2022-09-20T21:02:42.142Z,18.71
2022-09-20T21:05:07.028Z,18.84
2022-09-20T21:07:30.109Z,18.57
2022-09-20T21:09:53.526Z,18.81
2022-09-20T21:12:16.669Z,19.06
2022-09-20T21:14:41.080Z,19.25
2022-09-20T21:17:05.611Z,19.34
2022-09-20T21:19:28.512Z,19.46
2022-09-20T21:21:51.700Z,19.12
2022-09-20T21:24:17.279Z,18.89
2022-09-20T21:26:40.754Z,18.84
2022-09-20T21:29:04.825Z,19.10
2022-09-20T21:31:28.640Z,19.09
2022-09-20T21:33:53.246Z,18.65
2022-09-20T21:36:16.629Z,18.98
2022-09-20T21:38:40.061Z,19.17
2022-09-20T21:41:07.546Z,19.20
2022-09-20T21:43:30.942Z,19.27
2022-09-20T21:45:57.127Z,19.39
2022-09-20T21:48:20.370Z,19.41
2022-09-20T21:50:45.029Z,19.17
2022-09-20T21:53:08.202Z,19.22
2022-09-20T21:55:31.527Z,18.79
2022-09-20T21:57:54.713Z,18.71
2022-09-20T22:00:17.921Z,18.60
2022-09-20T22:02:41.224Z,18.84
2022-09-20T22:05:04.611Z,19.01
2022-09-20T22:07:29.153Z,18.87
2022-09-20T22:09:52.093Z,18.66
2022-09-20T22:12:15.257Z,18.64
2022-09-20T22:14:39.984Z,18.32
2022-09-20T22:17:03.127Z,18.57
2022-09-20T22:19:26.293Z,18.79
2022-09-20T22:21:50.985Z,18.64
2022-09-20T22:24:15.632Z,18.58
2022-09-20T22:26:39.803Z,18.66
2022-09-20T22:29:03.079Z,18.45
2022-09-20T22:31:27.302Z,18.54
2022-09-20T22:33:52.104Z,18.45
2022-09-20T22:36:16.401Z,18.50
2022-09-20T22:38:39.555Z,18.50
2022-09-20T22:41:04.082Z,18.68
2022-09-20T22:43:27.179Z,18.74
2022-09-20T22:45:50.373Z,18.75
2022-09-20T22:48:13.533Z,18.50
2022-09-20T22:50:36.678Z,18.54
2022-09-20T22:52:59.964Z,18.67
2022-09-20T22:55:24.280Z,18.69
2022-09-20T22:57:53.932Z,18.62
2022-09-20T23:00:17.222Z,18.85
2022-09-20T23:02:40.405Z,18.96
2022-09-20T23:05:03.666Z,18.90
2022-09-20T23:07:26.810Z,18.72
2022-09-20T23:09:50.150Z,18.76
2022-09-20T23:12:13.289Z,18.73
2022-09-20T23:14:37.898Z,18.70
2022-09-20T23:17:00.828Z,19.02
2022-09-20T23:19:24.110Z,19.23
2022-09-20T23:21:47.252Z,19.37
2022-09-20T23:24:11.800Z,19.43
2022-09-20T23:26:35.264Z,19.26
2022-09-20T23:28:59.691Z,18.74
2022-09-20T23:31:26.417Z,18.42
2022-09-20T23:33:49.733Z,18.47
2022-09-20T23:36:12.896Z,18.48
2022-09-20T23:38:36.133Z,18.50
2022-09-20T23:41:03.668Z,18.29
2022-09-20T23:43:26.845Z,18.28
2022-09-20T23:45:51.216Z,18.18
2022-09-20T23:48:15.796Z,18.04
2022-09-20T23:50:39.124Z,18.02
2022-09-20T23:53:02.262Z,18.14
2022-09-20T23:55:25.492Z,18.34
2022-09-20T23:57:50.706Z,18.57
